Terminal Aerodrome Forecast
Issued by NWS Cleveland, OH

Home | Current Version | Previous Version | Text Only | Print | Product List | Glossary Off
Versions: 1 2 3 4 5 6 7 8 9 10 11 12 13 14 15 16 17 18 19 20 21 22

000
FTUS41 KCLE 131700
TAFMFD
TAF
KMFD 131731Z 1318/1418 21020G30KT P6SM BKN045 BKN200
     FM140000 19016G24KT P6SM SCT050 BKN200 WS010/21040KT
     FM141100 21020G30KT 6SM -SHRA BKN040 OVC120
     FM141500 20022G32KT 5SM -SHRA VCTS BKN030CB OVC080=

USA.gov is the U.S. government's official web portal to all federal, state and local government web resources and services.